Aérodrome :
LOGIN :

S'inscrire | Disclaimer

   EN    FR    IT 

 










Légende :    VFR   VFR Marginal   IFR   IFR Intensif   IFR Très Intensif
Visi : 
Plafond : 
>= 8 km
>= 3000ft
5 à 8 km
1000 à 3000 ft
1500m à 5 km
500 à 1000 ft
800 à 1500m
200 à 500 ft
< 800m
< 200 ft
Symboles :   Orages  Brouillard  Fortes neiges  Fortes précipitations  Vent > 20 kt
SIGMETs :   Divers  Orages  Givrage  Turbulence  Onde Orograph.  Cendres Volcan.







- Altitude de l'aérodrome : 219 ft
- Code IATA : DNR
- Voir les cartes d'approche


LFRD - Dinard

DERNIER METAR :
  • 181800Z AUTO 01003KT CAVOK 05/04 Q1032 NOSIG

METARs EXPIRÉS :
  • 181730Z AUTO 36003KT CAVOK 05/04 Q1031 NOSIG
  • 181700Z AUTO 33003KT CAVOK 05/03 Q1031 NOSIG
  • 181630Z AUTO 33005KT CAVOK 06/04 Q1031 NOSIG
  • 181600Z AUTO 02004KT CAVOK 07/05 Q1030 NOSIG
  • 181530Z AUTO 03006KT CAVOK 08/06 Q1030 NOSIG

TAF TAF LFRD
Valide du 18 à 18h jusqu'au 19 à 18h UTC


181700Z 1818/1918 VRB03KT 9999 FEW020
TEMPO 1900/1909 3000 BR
PROB30
TEMPO 1903/1909 0500 BCFG
ATIS : +33 2 99 16 81 50
Pas de NOTAMs connus pour ce terrain.



MET'MAP, la Météo Aéronautique d'un coup d'oeil ! - Copyright ORBIFLY Décembre 2007 - Disclaimer

ORBIFLY MET'MAP TEAM :

Programmation & Développement : Alexandra Zaïnal
Conception & Développement : Baudouin d'Aumeries
Co-Programmation & Développement : Marc-Olivier Méhu
Soutien technique & logistique : Manuel Goepfert

Contact : metmap@orbifly.com




SOURCES & CREDITS :

   NOAA